sensor_id;sensor_type;location;lat;lon;timestamp;P1;durP1;ratioP1;P2;durP2;ratioP2
69730;SDS011;56996;48.138;11.538;2023-02-28T00:01:31;5.10;;;1.00;;
69730;SDS011;56996;48.138;11.538;2023-02-28T00:03:59;5.30;;;1.30;;
69730;SDS011;56996;48.138;11.538;2023-02-28T00:06:26;5.80;;;1.80;;
69730;SDS011;56996;48.138;11.538;2023-02-28T00:08:53;5.10;;;1.20;;
69730;SDS011;56996;48.138;11.538;2023-02-28T00:11:19;6.10;;;1.90;;
69730;SDS011;56996;48.138;11.538;2023-02-28T00:13:46;8.90;;;2.80;;
69730;SDS011;56996;48.138;11.538;2023-02-28T00:16:17;7.40;;;2.40;;
69730;SDS011;56996;48.138;11.538;2023-02-28T00:18:45;6.50;;;2.00;;
69730;SDS011;56996;48.138;11.538;2023-02-28T00:21:14;4.70;;;1.30;;
69730;SDS011;56996;48.138;11.538;2023-02-28T00:23:42;5.20;;;1.50;;
69730;SDS011;56996;48.138;11.538;2023-02-28T00:26:09;9.00;;;2.60;;
69730;SDS011;56996;48.138;11.538;2023-02-28T00:28:36;9.40;;;3.10;;
69730;SDS011;56996;48.138;11.538;2023-02-28T00:31:03;7.60;;;2.50;;
69730;SDS011;56996;48.138;11.538;2023-02-28T00:33:30;8.30;;;2.50;;
69730;SDS011;56996;48.138;11.538;2023-02-28T00:36:04;8.20;;;3.00;;
69730;SDS011;56996;48.138;11.538;2023-02-28T00:38:35;6.70;;;2.10;;
69730;SDS011;56996;48.138;11.538;2023-02-28T00:41:03;7.40;;;2.00;;
69730;SDS011;56996;48.138;11.538;2023-02-28T00:43:36;6.90;;;2.00;;
69730;SDS011;56996;48.138;11.538;2023-02-28T00:46:05;8.20;;;2.40;;
69730;SDS011;56996;48.138;11.538;2023-02-28T00:48:32;7.40;;;2.40;;
69730;SDS011;56996;48.138;11.538;2023-02-28T00:51:00;8.20;;;2.60;;
69730;SDS011;56996;48.138;11.538;2023-02-28T00:53:28;8.10;;;2.30;;
69730;SDS011;56996;48.138;11.538;2023-02-28T00:55:56;7.60;;;2.40;;
69730;SDS011;56996;48.138;11.538;2023-02-28T00:58:23;7.20;;;2.00;;
69730;SDS011;56996;48.138;11.538;2023-02-28T01:00:52;4.20;;;1.00;;
69730;SDS011;56996;48.138;11.538;2023-02-28T01:03:20;7.00;;;2.00;;
69730;SDS011;56996;48.138;11.538;2023-02-28T01:05:48;5.60;;;1.60;;
69730;SDS011;56996;48.138;11.538;2023-02-28T01:08:15;5.60;;;1.50;;
69730;SDS011;56996;48.138;11.538;2023-02-28T01:10:42;6.20;;;1.60;;
69730;SDS011;56996;48.138;11.538;2023-02-28T01:13:10;5.90;;;1.80;;
69730;SDS011;56996;48.138;11.538;2023-02-28T01:15:39;7.40;;;2.30;;
69730;SDS011;56996;48.138;11.538;2023-02-28T01:18:10;6.10;;;1.80;;
69730;SDS011;56996;48.138;11.538;2023-02-28T01:20:38;6.20;;;2.00;;
69730;SDS011;56996;48.138;11.538;2023-02-28T01:23:04;5.70;;;1.60;;
69730;SDS011;56996;48.138;11.538;2023-02-28T01:25:36;7.60;;;2.30;;
69730;SDS011;56996;48.138;11.538;2023-02-28T01:28:04;5.70;;;1.70;;
69730;SDS011;56996;48.138;11.538;2023-02-28T01:30:33;6.50;;;1.90;;
69730;SDS011;56996;48.138;11.538;2023-02-28T01:32:59;7.40;;;2.30;;
69730;SDS011;56996;48.138;11.538;2023-02-28T01:35:26;6.20;;;1.70;;
69730;SDS011;56996;48.138;11.538;2023-02-28T01:37:53;6.60;;;2.10;;
69730;SDS011;56996;48.138;11.538;2023-02-28T01:40:20;5.90;;;2.00;;
69730;SDS011;56996;48.138;11.538;2023-02-28T01:42:47;5.40;;;1.70;;
69730;SDS011;56996;48.138;11.538;2023-02-28T01:45:27;7.10;;;1.80;;
69730;SDS011;56996;48.138;11.538;2023-02-28T01:48:02;6.00;;;1.50;;
69730;SDS011;56996;48.138;11.538;2023-02-28T01:50:35;6.40;;;1.90;;
69730;SDS011;56996;48.138;11.538;2023-02-28T01:53:08;6.70;;;2.00;;
69730;SDS011;56996;48.138;11.538;2023-02-28T01:55:45;5.10;;;1.60;;
69730;SDS011;56996;48.138;11.538;2023-02-28T01:58:14;4.80;;;1.50;;
69730;SDS011;56996;48.138;11.538;2023-02-28T02:00:41;5.70;;;1.70;;
69730;SDS011;56996;48.138;11.538;2023-02-28T02:03:12;5.90;;;1.50;;
69730;SDS011;56996;48.138;11.538;2023-02-28T02:05:42;6.70;;;1.50;;
69730;SDS011;56996;48.138;11.538;2023-02-28T02:08:17;5.30;;;1.70;;
69730;SDS011;56996;48.138;11.538;2023-02-28T02:10:49;7.50;;;3.10;;
69730;SDS011;56996;48.138;11.538;2023-02-28T02:19:49;8.00;;;2.00;;
69730;SDS011;56996;48.138;11.538;2023-02-28T02:31:31;6.50;;;1.80;;
69730;SDS011;56996;48.138;11.538;2023-02-28T02:34:29;7.20;;;1.70;;
69730;SDS011;56996;48.138;11.538;2023-02-28T02:42:56;6.60;;;2.00;;
69730;SDS011;56996;48.138;11.538;2023-02-28T02:45:31;6.60;;;1.90;;
69730;SDS011;56996;48.138;11.538;2023-02-28T02:48:09;6.60;;;2.00;;
69730;SDS011;56996;48.138;11.538;2023-02-28T02:50:43;5.40;;;1.70;;
69730;SDS011;56996;48.138;11.538;2023-02-28T02:53:14;6.90;;;2.10;;
69730;SDS011;56996;48.138;11.538;2023-02-28T02:55:45;5.20;;;1.50;;
69730;SDS011;56996;48.138;11.538;2023-02-28T02:58:16;5.90;;;1.40;;
69730;SDS011;56996;48.138;11.538;2023-02-28T03:00:49;8.70;;;2.60;;
69730;SDS011;56996;48.138;11.538;2023-02-28T03:03:19;6.70;;;2.00;;
69730;SDS011;56996;48.138;11.538;2023-02-28T03:06:00;6.80;;;2.00;;
69730;SDS011;56996;48.138;11.538;2023-02-28T03:08:29;5.20;;;1.60;;
69730;SDS011;56996;48.138;11.538;2023-02-28T03:11:01;8.30;;;2.60;;
69730;SDS011;56996;48.138;11.538;2023-02-28T03:13:41;11.30;;;3.20;;
69730;SDS011;56996;48.138;11.538;2023-02-28T03:16:23;7.20;;;2.40;;
69730;SDS011;56996;48.138;11.538;2023-02-28T03:30:38;6.00;;;2.10;;
69730;SDS011;56996;48.138;11.538;2023-02-28T03:33:18;8.30;;;2.80;;
69730;SDS011;56996;48.138;11.538;2023-02-28T03:35:59;6.70;;;2.10;;
69730;SDS011;56996;48.138;11.538;2023-02-28T03:38:36;6.90;;;2.20;;
69730;SDS011;56996;48.138;11.538;2023-02-28T03:41:27;6.10;;;2.00;;
69730;SDS011;56996;48.138;11.538;2023-02-28T03:44:11;7.40;;;2.60;;
69730;SDS011;56996;48.138;11.538;2023-02-28T03:47:24;8.30;;;2.10;;
69730;SDS011;56996;48.138;11.538;2023-02-28T03:50:19;6.60;;;2.00;;
69730;SDS011;56996;48.138;11.538;2023-02-28T03:52:57;7.30;;;2.30;;
69730;SDS011;56996;48.138;11.538;2023-02-28T03:55:32;6.50;;;2.10;;
69730;SDS011;56996;48.138;11.538;2023-02-28T03:58:17;8.60;;;2.50;;
69730;SDS011;56996;48.138;11.538;2023-02-28T04:00:57;7.80;;;2.20;;
69730;SDS011;56996;48.138;11.538;2023-02-28T04:03:38;5.90;;;1.70;;
69730;SDS011;56996;48.138;11.538;2023-02-28T04:06:07;9.60;;;2.50;;
69730;SDS011;56996;48.138;11.538;2023-02-28T04:08:40;6.70;;;2.20;;
69730;SDS011;56996;48.138;11.538;2023-02-28T04:11:22;8.20;;;2.60;;
69730;SDS011;56996;48.138;11.538;2023-02-28T04:13:50;7.80;;;2.70;;
69730;SDS011;56996;48.138;11.538;2023-02-28T04:16:17;9.80;;;2.90;;
69730;SDS011;56996;48.138;11.538;2023-02-28T04:19:01;7.40;;;2.60;;
69730;SDS011;56996;48.138;11.538;2023-02-28T04:21:35;9.00;;;2.70;;
69730;SDS011;56996;48.138;11.538;2023-02-28T04:24:07;9.20;;;3.00;;
69730;SDS011;56996;48.138;11.538;2023-02-28T04:26:36;8.90;;;3.30;;
69730;SDS011;56996;48.138;11.538;2023-02-28T04:29:04;7.20;;;2.50;;
69730;SDS011;56996;48.138;11.538;2023-02-28T04:31:33;10.60;;;3.20;;
69730;SDS011;56996;48.138;11.538;2023-02-28T04:34:00;8.80;;;3.00;;
69730;SDS011;56996;48.138;11.538;2023-02-28T04:36:27;9.40;;;3.70;;
69730;SDS011;56996;48.138;11.538;2023-02-28T04:38:54;8.50;;;3.10;;
69730;SDS011;56996;48.138;11.538;2023-02-28T04:41:21;6.30;;;1.70;;
69730;SDS011;56996;48.138;11.538;2023-02-28T04:43:50;8.30;;;2.60;;
69730;SDS011;56996;48.138;11.538;2023-02-28T04:46:18;8.50;;;3.30;;
69730;SDS011;56996;48.138;11.538;2023-02-28T04:48:46;7.60;;;2.90;;
69730;SDS011;56996;48.138;11.538;2023-02-28T04:51:15;6.70;;;2.50;;
69730;SDS011;56996;48.138;11.538;2023-02-28T04:53:43;11.40;;;3.60;;
69730;SDS011;56996;48.138;11.538;2023-02-28T04:56:12;9.10;;;2.40;;
69730;SDS011;56996;48.138;11.538;2023-02-28T04:58:39;9.60;;;3.60;;
69730;SDS011;56996;48.138;11.538;2023-02-28T05:01:17;7.50;;;2.50;;
69730;SDS011;56996;48.138;11.538;2023-02-28T05:03:47;10.10;;;3.40;;
69730;SDS011;56996;48.138;11.538;2023-02-28T05:06:15;8.80;;;3.50;;
69730;SDS011;56996;48.138;11.538;2023-02-28T05:08:43;10.50;;;3.90;;
69730;SDS011;56996;48.138;11.538;2023-02-28T05:13:47;9.00;;;3.60;;
69730;SDS011;56996;48.138;11.538;2023-02-28T05:16:15;10.90;;;4.10;;
69730;SDS011;56996;48.138;11.538;2023-02-28T05:18:41;10.40;;;4.30;;
69730;SDS011;56996;48.138;11.538;2023-02-28T05:21:27;13.30;;;4.80;;
69730;SDS011;56996;48.138;11.538;2023-02-28T05:23:56;11.10;;;4.00;;
69730;SDS011;56996;48.138;11.538;2023-02-28T05:26:26;10.50;;;4.10;;
69730;SDS011;56996;48.138;11.538;2023-02-28T05:28:54;13.10;;;4.80;;
69730;SDS011;56996;48.138;11.538;2023-02-28T05:31:22;10.20;;;4.10;;
69730;SDS011;56996;48.138;11.538;2023-02-28T05:33:49;7.50;;;2.60;;
69730;SDS011;56996;48.138;11.538;2023-02-28T05:36:16;10.40;;;4.20;;
69730;SDS011;56996;48.138;11.538;2023-02-28T05:38:42;9.60;;;3.80;;
69730;SDS011;56996;48.138;11.538;2023-02-28T05:41:34;8.80;;;3.30;;
69730;SDS011;56996;48.138;11.538;2023-02-28T05:44:03;12.20;;;4.40;;
69730;SDS011;56996;48.138;11.538;2023-02-28T05:46:29;12.80;;;5.20;;
69730;SDS011;56996;48.138;11.538;2023-02-28T05:48:56;13.70;;;5.60;;
69730;SDS011;56996;48.138;11.538;2023-02-28T05:51:25;11.40;;;4.30;;
69730;SDS011;56996;48.138;11.538;2023-02-28T05:53:53;9.60;;;3.90;;
69730;SDS011;56996;48.138;11.538;2023-02-28T05:56:20;9.80;;;3.80;;
69730;SDS011;56996;48.138;11.538;2023-02-28T05:58:47;12.60;;;5.60;;
69730;SDS011;56996;48.138;11.538;2023-02-28T06:01:35;14.00;;;6.50;;
69730;SDS011;56996;48.138;11.538;2023-02-28T06:04:06;9.40;;;3.20;;
69730;SDS011;56996;48.138;11.538;2023-02-28T06:06:39;10.00;;;4.20;;
69730;SDS011;56996;48.138;11.538;2023-02-28T06:09:06;13.60;;;5.60;;
69730;SDS011;56996;48.138;11.538;2023-02-28T06:11:33;16.20;;;5.90;;
69730;SDS011;56996;48.138;11.538;2023-02-28T06:14:00;13.40;;;5.60;;
69730;SDS011;56996;48.138;11.538;2023-02-28T06:16:29;15.20;;;6.50;;
69730;SDS011;56996;48.138;11.538;2023-02-28T06:18:58;12.50;;;4.80;;
69730;SDS011;56996;48.138;11.538;2023-02-28T06:21:27;14.80;;;6.30;;
69730;SDS011;56996;48.138;11.538;2023-02-28T06:23:55;16.10;;;6.20;;
69730;SDS011;56996;48.138;11.538;2023-02-28T06:26:24;14.30;;;6.80;;
69730;SDS011;56996;48.138;11.538;2023-02-28T06:28:51;15.00;;;6.70;;
69730;SDS011;56996;48.138;11.538;2023-02-28T06:31:18;16.00;;;6.60;;
69730;SDS011;56996;48.138;11.538;2023-02-28T06:33:46;15.90;;;6.00;;
69730;SDS011;56996;48.138;11.538;2023-02-28T06:36:15;14.80;;;6.70;;
69730;SDS011;56996;48.138;11.538;2023-02-28T06:38:43;15.20;;;5.90;;
69730;SDS011;56996;48.138;11.538;2023-02-28T06:41:10;15.20;;;6.80;;
69730;SDS011;56996;48.138;11.538;2023-02-28T06:43:41;13.50;;;5.90;;
69730;SDS011;56996;48.138;11.538;2023-02-28T06:46:12;16.50;;;7.30;;
69730;SDS011;56996;48.138;11.538;2023-02-28T06:48:40;13.80;;;4.70;;
69730;SDS011;56996;48.138;11.538;2023-02-28T06:51:17;17.30;;;6.30;;
69730;SDS011;56996;48.138;11.538;2023-02-28T06:53:46;15.60;;;6.90;;
69730;SDS011;56996;48.138;11.538;2023-02-28T06:56:14;14.40;;;6.30;;
69730;SDS011;56996;48.138;11.538;2023-02-28T06:58:46;17.60;;;7.50;;
69730;SDS011;56996;48.138;11.538;2023-02-28T07:01:15;18.10;;;7.80;;
69730;SDS011;56996;48.138;11.538;2023-02-28T07:03:42;16.70;;;7.00;;
69730;SDS011;56996;48.138;11.538;2023-02-28T07:06:09;12.60;;;4.90;;
69730;SDS011;56996;48.138;11.538;2023-02-28T07:08:35;14.40;;;6.30;;
69730;SDS011;56996;48.138;11.538;2023-02-28T07:11:02;14.90;;;6.20;;
69730;SDS011;56996;48.138;11.538;2023-02-28T07:13:30;15.60;;;6.80;;
69730;SDS011;56996;48.138;11.538;2023-02-28T07:15:59;16.00;;;7.10;;
69730;SDS011;56996;48.138;11.538;2023-02-28T07:18:27;17.70;;;8.10;;
69730;SDS011;56996;48.138;11.538;2023-02-28T07:20:54;12.40;;;5.10;;
69730;SDS011;56996;48.138;11.538;2023-02-28T07:23:22;17.20;;;7.10;;
69730;SDS011;56996;48.138;11.538;2023-02-28T07:25:50;15.00;;;7.10;;
69730;SDS011;56996;48.138;11.538;2023-02-28T07:28:17;17.80;;;7.50;;
69730;SDS011;56996;48.138;11.538;2023-02-28T07:30:43;14.10;;;4.70;;
69730;SDS011;56996;48.138;11.538;2023-02-28T07:33:10;14.80;;;5.00;;
69730;SDS011;56996;48.138;11.538;2023-02-28T07:35:37;13.90;;;6.50;;
69730;SDS011;56996;48.138;11.538;2023-02-28T07:38:04;14.70;;;6.60;;
69730;SDS011;56996;48.138;11.538;2023-02-28T07:40:31;16.90;;;7.20;;
69730;SDS011;56996;48.138;11.538;2023-02-28T07:42:59;15.60;;;6.60;;
69730;SDS011;56996;48.138;11.538;2023-02-28T07:45:28;14.80;;;4.80;;
69730;SDS011;56996;48.138;11.538;2023-02-28T07:47:55;16.80;;;6.50;;
69730;SDS011;56996;48.138;11.538;2023-02-28T07:50:22;12.50;;;4.70;;
69730;SDS011;56996;48.138;11.538;2023-02-28T07:52:52;15.70;;;7.00;;
69730;SDS011;56996;48.138;11.538;2023-02-28T07:55:19;14.70;;;6.40;;
69730;SDS011;56996;48.138;11.538;2023-02-28T07:57:45;18.30;;;7.10;;
69730;SDS011;56996;48.138;11.538;2023-02-28T08:00:12;15.60;;;7.10;;
69730;SDS011;56996;48.138;11.538;2023-02-28T08:02:40;16.30;;;6.40;;
69730;SDS011;56996;48.138;11.538;2023-02-28T08:05:07;17.60;;;7.70;;
69730;SDS011;56996;48.138;11.538;2023-02-28T08:07:34;16.70;;;7.60;;
69730;SDS011;56996;48.138;11.538;2023-02-28T08:10:01;15.90;;;7.00;;
69730;SDS011;56996;48.138;11.538;2023-02-28T08:12:28;16.30;;;6.80;;
69730;SDS011;56996;48.138;11.538;2023-02-28T08:14:54;14.70;;;5.60;;
69730;SDS011;56996;48.138;11.538;2023-02-28T08:17:21;16.00;;;7.50;;
69730;SDS011;56996;48.138;11.538;2023-02-28T08:19:47;16.90;;;8.50;;
69730;SDS011;56996;48.138;11.538;2023-02-28T08:22:14;17.80;;;7.20;;
69730;SDS011;56996;48.138;11.538;2023-02-28T08:24:41;19.30;;;8.30;;
69730;SDS011;56996;48.138;11.538;2023-02-28T08:27:09;14.10;;;6.40;;
69730;SDS011;56996;48.138;11.538;2023-02-28T08:29:39;20.50;;;10.40;;
69730;SDS011;56996;48.138;11.538;2023-02-28T08:32:06;15.70;;;7.40;;
69730;SDS011;56996;48.138;11.538;2023-02-28T08:34:49;17.00;;;7.80;;
69730;SDS011;56996;48.138;11.538;2023-02-28T08:37:15;18.10;;;7.70;;
69730;SDS011;56996;48.138;11.538;2023-02-28T08:39:42;15.40;;;6.70;;
69730;SDS011;56996;48.138;11.538;2023-02-28T08:42:09;15.60;;;7.00;;
69730;SDS011;56996;48.138;11.538;2023-02-28T08:44:35;17.30;;;7.70;;
69730;SDS011;56996;48.138;11.538;2023-02-28T08:47:02;16.90;;;7.80;;
69730;SDS011;56996;48.138;11.538;2023-02-28T08:49:29;23.00;;;11.50;;
69730;SDS011;56996;48.138;11.538;2023-02-28T08:51:55;21.00;;;9.80;;
69730;SDS011;56996;48.138;11.538;2023-02-28T08:54:24;11.80;;;4.90;;
69730;SDS011;56996;48.138;11.538;2023-02-28T08:56:51;17.70;;;7.50;;
69730;SDS011;56996;48.138;11.538;2023-02-28T08:59:18;19.30;;;9.00;;
69730;SDS011;56996;48.138;11.538;2023-02-28T09:01:44;19.40;;;8.10;;
69730;SDS011;56996;48.138;11.538;2023-02-28T09:04:11;17.60;;;7.80;;
69730;SDS011;56996;48.138;11.538;2023-02-28T09:06:43;16.90;;;7.90;;
69730;SDS011;56996;48.138;11.538;2023-02-28T09:09:10;19.40;;;8.60;;
69730;SDS011;56996;48.138;11.538;2023-02-28T09:11:37;10.80;;;4.70;;
69730;SDS011;56996;48.138;11.538;2023-02-28T09:14:04;15.50;;;6.70;;
69730;SDS011;56996;48.138;11.538;2023-02-28T09:16:31;18.30;;;7.40;;
69730;SDS011;56996;48.138;11.538;2023-02-28T09:18:59;14.60;;;6.00;;
69730;SDS011;56996;48.138;11.538;2023-02-28T09:21:26;12.00;;;4.90;;
69730;SDS011;56996;48.138;11.538;2023-02-28T09:23:54;16.00;;;7.30;;
69730;SDS011;56996;48.138;11.538;2023-02-28T09:26:24;20.20;;;8.30;;
69730;SDS011;56996;48.138;11.538;2023-02-28T09:28:52;23.00;;;8.80;;
69730;SDS011;56996;48.138;11.538;2023-02-28T09:31:22;18.80;;;7.70;;
69730;SDS011;56996;48.138;11.538;2023-02-28T09:33:52;20.70;;;10.20;;
69730;SDS011;56996;48.138;11.538;2023-02-28T09:36:22;10.50;;;4.30;;
69730;SDS011;56996;48.138;11.538;2023-02-28T09:39:07;18.90;;;8.60;;
69730;SDS011;56996;48.138;11.538;2023-02-28T09:41:39;17.30;;;8.00;;
69730;SDS011;56996;48.138;11.538;2023-02-28T09:44:22;15.00;;;7.20;;
69730;SDS011;56996;48.138;11.538;2023-02-28T09:47:18;16.30;;;7.10;;
69730;SDS011;56996;48.138;11.538;2023-02-28T09:49:52;11.20;;;4.50;;
69730;SDS011;56996;48.138;11.538;2023-02-28T09:52:27;13.90;;;6.60;;
69730;SDS011;56996;48.138;11.538;2023-02-28T09:55:05;17.70;;;8.50;;
69730;SDS011;56996;48.138;11.538;2023-02-28T09:58:26;15.10;;;6.90;;
69730;SDS011;56996;48.138;11.538;2023-02-28T10:01:08;12.10;;;4.30;;
69730;SDS011;56996;48.138;11.538;2023-02-28T10:03:50;15.10;;;6.70;;
69730;SDS011;56996;48.138;11.538;2023-02-28T10:06:26;14.50;;;6.80;;
69730;SDS011;56996;48.138;11.538;2023-02-28T10:11:33;16.40;;;7.30;;
69730;SDS011;56996;48.138;11.538;2023-02-28T10:16:51;26.40;;;11.50;;
69730;SDS011;56996;48.138;11.538;2023-02-28T10:19:27;16.30;;;7.70;;
69730;SDS011;56996;48.138;11.538;2023-02-28T10:22:05;16.40;;;7.70;;
69730;SDS011;56996;48.138;11.538;2023-02-28T10:24:44;15.50;;;7.80;;
69730;SDS011;56996;48.138;11.538;2023-02-28T10:27:21;16.00;;;7.30;;
69730;SDS011;56996;48.138;11.538;2023-02-28T10:29:54;15.90;;;6.90;;
69730;SDS011;56996;48.138;11.538;2023-02-28T10:32:27;16.30;;;7.30;;
69730;SDS011;56996;48.138;11.538;2023-02-28T10:35:17;18.20;;;8.60;;
69730;SDS011;56996;48.138;11.538;2023-02-28T10:37:59;21.90;;;10.80;;
69730;SDS011;56996;48.138;11.538;2023-02-28T10:40:34;15.50;;;8.10;;
69730;SDS011;56996;48.138;11.538;2023-02-28T10:43:04;16.80;;;8.00;;
69730;SDS011;56996;48.138;11.538;2023-02-28T10:45:33;16.00;;;6.90;;
69730;SDS011;56996;48.138;11.538;2023-02-28T10:48:29;14.80;;;7.30;;
69730;SDS011;56996;48.138;11.538;2023-02-28T10:50:57;17.70;;;8.80;;
69730;SDS011;56996;48.138;11.538;2023-02-28T10:53:34;14.20;;;6.20;;
69730;SDS011;56996;48.138;11.538;2023-02-28T10:56:24;14.90;;;6.20;;
69730;SDS011;56996;48.138;11.538;2023-02-28T11:01:38;14.20;;;6.90;;
69730;SDS011;56996;48.138;11.538;2023-02-28T11:04:33;16.80;;;8.00;;
69730;SDS011;56996;48.138;11.538;2023-02-28T11:07:23;17.60;;;9.00;;
69730;SDS011;56996;48.138;11.538;2023-02-28T11:09:57;14.50;;;7.60;;
69730;SDS011;56996;48.138;11.538;2023-02-28T11:12:37;16.20;;;7.70;;
69730;SDS011;56996;48.138;11.538;2023-02-28T11:18:01;17.60;;;8.50;;
69730;SDS011;56996;48.138;11.538;2023-02-28T11:20:31;16.40;;;7.60;;
69730;SDS011;56996;48.138;11.538;2023-02-28T11:23:01;13.00;;;6.90;;
69730;SDS011;56996;48.138;11.538;2023-02-28T11:25:35;16.10;;;7.50;;
69730;SDS011;56996;48.138;11.538;2023-02-28T11:31:01;15.40;;;6.10;;
69730;SDS011;56996;48.138;11.538;2023-02-28T11:33:46;18.10;;;8.70;;
69730;SDS011;56996;48.138;11.538;2023-02-28T11:36:22;15.50;;;7.10;;
69730;SDS011;56996;48.138;11.538;2023-02-28T11:38:53;13.50;;;6.70;;
69730;SDS011;56996;48.138;11.538;2023-02-28T11:45:11;18.70;;;10.70;;
69730;SDS011;56996;48.138;11.538;2023-02-28T12:07:50;14.60;;;7.20;;
69730;SDS011;56996;48.138;11.538;2023-02-28T12:10:30;16.50;;;8.20;;
69730;SDS011;56996;48.138;11.538;2023-02-28T12:13:17;15.20;;;8.20;;
69730;SDS011;56996;48.138;11.538;2023-02-28T12:16:16;11.00;;;4.50;;
69730;SDS011;56996;48.138;11.538;2023-02-28T12:19:29;21.40;;;11.60;;
69730;SDS011;56996;48.138;11.538;2023-02-28T12:28:09;16.20;;;7.70;;
69730;SDS011;56996;48.138;11.538;2023-02-28T12:30:43;13.00;;;6.70;;
69730;SDS011;56996;48.138;11.538;2023-02-28T12:33:22;14.30;;;7.30;;
69730;SDS011;56996;48.138;11.538;2023-02-28T12:35:56;12.50;;;5.90;;
69730;SDS011;56996;48.138;11.538;2023-02-28T12:38:40;14.10;;;7.10;;
69730;SDS011;56996;48.138;11.538;2023-02-28T12:44:34;15.50;;;6.90;;
69730;SDS011;56996;48.138;11.538;2023-02-28T12:47:10;14.40;;;7.60;;
69730;SDS011;56996;48.138;11.538;2023-02-28T12:49:56;12.80;;;5.70;;
69730;SDS011;56996;48.138;11.538;2023-02-28T12:52:50;14.70;;;6.20;;
69730;SDS011;56996;48.138;11.538;2023-02-28T13:04:36;13.20;;;6.00;;
69730;SDS011;56996;48.138;11.538;2023-02-28T13:10:15;15.60;;;7.00;;
69730;SDS011;56996;48.138;11.538;2023-02-28T13:12:53;16.80;;;7.60;;
69730;SDS011;56996;48.138;11.538;2023-02-28T13:15:26;15.20;;;7.50;;
69730;SDS011;56996;48.138;11.538;2023-02-28T13:18:00;13.60;;;5.80;;
69730;SDS011;56996;48.138;11.538;2023-02-28T13:20:36;10.50;;;4.70;;
69730;SDS011;56996;48.138;11.538;2023-02-28T13:23:03;14.80;;;6.60;;
69730;SDS011;56996;48.138;11.538;2023-02-28T13:26:09;13.10;;;5.30;;
69730;SDS011;56996;48.138;11.538;2023-02-28T13:31:15;11.70;;;5.50;;
69730;SDS011;56996;48.138;11.538;2023-02-28T13:38:51;13.50;;;7.10;;
69730;SDS011;56996;48.138;11.538;2023-02-28T13:44:16;16.30;;;7.10;;
69730;SDS011;56996;48.138;11.538;2023-02-28T14:06:22;12.80;;;6.40;;
69730;SDS011;56996;48.138;11.538;2023-02-28T14:11:56;11.10;;;5.40;;
69730;SDS011;56996;48.138;11.538;2023-02-28T14:17:07;10.40;;;4.60;;
69730;SDS011;56996;48.138;11.538;2023-02-28T14:19:37;12.40;;;6.60;;
69730;SDS011;56996;48.138;11.538;2023-02-28T14:26:07;13.50;;;6.70;;
69730;SDS011;56996;48.138;11.538;2023-02-28T14:35:28;12.90;;;6.90;;
69730;SDS011;56996;48.138;11.538;2023-02-28T14:38:14;13.00;;;6.50;;
69730;SDS011;56996;48.138;11.538;2023-02-28T14:40:45;14.50;;;7.10;;
69730;SDS011;56996;48.138;11.538;2023-02-28T14:43:26;14.30;;;7.10;;
69730;SDS011;56996;48.138;11.538;2023-02-28T14:46:02;12.80;;;5.80;;
69730;SDS011;56996;48.138;11.538;2023-02-28T14:48:30;11.10;;;4.80;;
69730;SDS011;56996;48.138;11.538;2023-02-28T14:50:59;16.10;;;6.80;;
69730;SDS011;56996;48.138;11.538;2023-02-28T14:53:35;14.70;;;6.60;;
69730;SDS011;56996;48.138;11.538;2023-02-28T14:56:03;13.00;;;5.80;;
69730;SDS011;56996;48.138;11.538;2023-02-28T14:58:32;14.10;;;6.80;;
69730;SDS011;56996;48.138;11.538;2023-02-28T15:01:03;12.40;;;6.00;;
69730;SDS011;56996;48.138;11.538;2023-02-28T15:06:16;13.20;;;6.30;;
69730;SDS011;56996;48.138;11.538;2023-02-28T15:08:45;15.30;;;6.30;;
69730;SDS011;56996;48.138;11.538;2023-02-28T15:11:17;13.40;;;6.60;;
69730;SDS011;56996;48.138;11.538;2023-02-28T15:13:53;12.60;;;5.60;;
69730;SDS011;56996;48.138;11.538;2023-02-28T15:16:34;10.90;;;5.70;;
69730;SDS011;56996;48.138;11.538;2023-02-28T15:19:30;13.50;;;6.00;;
69730;SDS011;56996;48.138;11.538;2023-02-28T15:22:04;13.00;;;6.30;;
69730;SDS011;56996;48.138;11.538;2023-02-28T15:27:11;12.10;;;5.40;;
69730;SDS011;56996;48.138;11.538;2023-02-28T15:29:49;12.00;;;5.10;;
69730;SDS011;56996;48.138;11.538;2023-02-28T15:34:56;13.70;;;5.80;;
69730;SDS011;56996;48.138;11.538;2023-02-28T15:37:40;13.40;;;6.00;;
69730;SDS011;56996;48.138;11.538;2023-02-28T15:46:14;14.70;;;5.90;;
69730;SDS011;56996;48.138;11.538;2023-02-28T15:48:45;10.40;;;4.40;;
69730;SDS011;56996;48.138;11.538;2023-02-28T15:51:33;10.60;;;3.80;;
69730;SDS011;56996;48.138;11.538;2023-02-28T15:54:06;13.50;;;6.10;;
69730;SDS011;56996;48.138;11.538;2023-02-28T15:56:45;13.50;;;6.20;;
69730;SDS011;56996;48.138;11.538;2023-02-28T15:59:19;13.00;;;6.10;;
69730;SDS011;56996;48.138;11.538;2023-02-28T16:04:36;10.20;;;4.90;;
69730;SDS011;56996;48.138;11.538;2023-02-28T16:07:05;12.50;;;5.20;;
69730;SDS011;56996;48.138;11.538;2023-02-28T16:09:39;12.80;;;4.90;;
69730;SDS011;56996;48.138;11.538;2023-02-28T16:12:05;13.50;;;5.80;;
69730;SDS011;56996;48.138;11.538;2023-02-28T16:14:35;14.90;;;6.90;;
69730;SDS011;56996;48.138;11.538;2023-02-28T16:17:16;15.00;;;6.70;;
69730;SDS011;56996;48.138;11.538;2023-02-28T16:19:49;15.10;;;6.20;;
69730;SDS011;56996;48.138;11.538;2023-02-28T16:22:16;15.00;;;6.60;;
69730;SDS011;56996;48.138;11.538;2023-02-28T16:24:43;12.50;;;5.80;;
69730;SDS011;56996;48.138;11.538;2023-02-28T16:27:33;13.20;;;5.60;;
69730;SDS011;56996;48.138;11.538;2023-02-28T16:30:04;14.10;;;5.50;;
69730;SDS011;56996;48.138;11.538;2023-02-28T16:32:35;14.40;;;6.00;;
69730;SDS011;56996;48.138;11.538;2023-02-28T16:35:05;9.40;;;3.50;;
69730;SDS011;56996;48.138;11.538;2023-02-28T16:37:35;16.60;;;7.00;;
69730;SDS011;56996;48.138;11.538;2023-02-28T16:40:04;17.60;;;9.20;;
69730;SDS011;56996;48.138;11.538;2023-02-28T16:42:31;12.60;;;5.60;;
69730;SDS011;56996;48.138;11.538;2023-02-28T16:44:58;9.30;;;3.10;;
69730;SDS011;56996;48.138;11.538;2023-02-28T16:47:24;13.60;;;5.20;;
69730;SDS011;56996;48.138;11.538;2023-02-28T16:49:53;15.90;;;6.50;;
69730;SDS011;56996;48.138;11.538;2023-02-28T16:52:19;12.10;;;5.00;;
69730;SDS011;56996;48.138;11.538;2023-02-28T16:54:46;13.10;;;5.60;;
69730;SDS011;56996;48.138;11.538;2023-02-28T16:57:21;13.20;;;5.50;;
69730;SDS011;56996;48.138;11.538;2023-02-28T16:59:49;15.80;;;6.10;;
69730;SDS011;56996;48.138;11.538;2023-02-28T17:02:19;16.40;;;6.90;;
69730;SDS011;56996;48.138;11.538;2023-02-28T17:04:46;13.70;;;6.30;;
69730;SDS011;56996;48.138;11.538;2023-02-28T17:07:15;13.40;;;6.20;;
69730;SDS011;56996;48.138;11.538;2023-02-28T17:09:44;14.30;;;5.60;;
69730;SDS011;56996;48.138;11.538;2023-02-28T17:12:12;11.90;;;5.30;;
69730;SDS011;56996;48.138;11.538;2023-02-28T17:14:39;14.30;;;6.80;;
69730;SDS011;56996;48.138;11.538;2023-02-28T17:17:06;13.60;;;5.90;;
69730;SDS011;56996;48.138;11.538;2023-02-28T17:19:34;15.00;;;6.00;;
69730;SDS011;56996;48.138;11.538;2023-02-28T17:22:02;13.50;;;6.10;;
69730;SDS011;56996;48.138;11.538;2023-02-28T17:24:29;12.80;;;5.00;;
69730;SDS011;56996;48.138;11.538;2023-02-28T17:26:57;15.60;;;6.20;;
69730;SDS011;56996;48.138;11.538;2023-02-28T17:29:23;14.20;;;5.70;;
69730;SDS011;56996;48.138;11.538;2023-02-28T17:31:51;13.00;;;6.30;;
69730;SDS011;56996;48.138;11.538;2023-02-28T17:34:18;17.30;;;6.50;;